sensor_id;sensor_type;location;lat;lon;timestamp;temperature;humidity
48998;DHT22;34807;51.456;7.244;2022-08-21T00:00:55;20.90;74.30
48998;DHT22;34807;51.456;7.244;2022-08-21T00:03:21;20.90;74.30
48998;DHT22;34807;51.456;7.244;2022-08-21T00:05:48;20.90;74.20
48998;DHT22;34807;51.456;7.244;2022-08-21T00:08:15;20.90;74.40
48998;DHT22;34807;51.456;7.244;2022-08-21T00:10:41;20.90;74.20
48998;DHT22;34807;51.456;7.244;2022-08-21T00:13:08;20.90;74.70
48998;DHT22;34807;51.456;7.244;2022-08-21T00:15:34;20.90;74.90
48998;DHT22;34807;51.456;7.244;2022-08-21T00:18:00;20.90;75.00
48998;DHT22;34807;51.456;7.244;2022-08-21T00:20:26;20.80;74.90
48998;DHT22;34807;51.456;7.244;2022-08-21T00:22:52;20.80;74.80
48998;DHT22;34807;51.456;7.244;2022-08-21T00:25:18;20.80;74.90
48998;DHT22;34807;51.456;7.244;2022-08-21T00:27:44;20.80;74.80
48998;DHT22;34807;51.456;7.244;2022-08-21T00:30:12;20.80;75.50
48998;DHT22;34807;51.456;7.244;2022-08-21T00:32:38;20.70;75.70
48998;DHT22;34807;51.456;7.244;2022-08-21T00:35:05;20.70;75.60
48998;DHT22;34807;51.456;7.244;2022-08-21T00:37:31;20.70;75.10
48998;DHT22;34807;51.456;7.244;2022-08-21T00:39:56;20.70;75.10
48998;DHT22;34807;51.456;7.244;2022-08-21T00:42:22;20.70;76.10
48998;DHT22;34807;51.456;7.244;2022-08-21T00:44:48;20.70;76.00
48998;DHT22;34807;51.456;7.244;2022-08-21T00:47:14;20.60;76.20
48998;DHT22;34807;51.456;7.244;2022-08-21T00:49:39;20.60;76.30
48998;DHT22;34807;51.456;7.244;2022-08-21T00:52:05;20.60;76.30
48998;DHT22;34807;51.456;7.244;2022-08-21T00:54:32;20.60;76.30
48998;DHT22;34807;51.456;7.244;2022-08-21T00:56:59;20.60;76.50
48998;DHT22;34807;51.456;7.244;2022-08-21T00:59:26;20.50;76.30
48998;DHT22;34807;51.456;7.244;2022-08-21T01:01:53;20.50;76.50
48998;DHT22;34807;51.456;7.244;2022-08-21T01:04:18;20.50;76.50
48998;DHT22;34807;51.456;7.244;2022-08-21T01:06:44;20.50;76.50
48998;DHT22;34807;51.456;7.244;2022-08-21T01:09:10;20.50;76.60
48998;DHT22;34807;51.456;7.244;2022-08-21T01:11:35;20.50;76.50
48998;DHT22;34807;51.456;7.244;2022-08-21T01:14:01;20.50;76.60
48998;DHT22;34807;51.456;7.244;2022-08-21T01:16:27;20.50;76.80
48998;DHT22;34807;51.456;7.244;2022-08-21T01:18:53;20.50;76.80
48998;DHT22;34807;51.456;7.244;2022-08-21T01:21:20;20.50;76.80
48998;DHT22;34807;51.456;7.244;2022-08-21T01:23:47;20.50;76.80
48998;DHT22;34807;51.456;7.244;2022-08-21T01:26:14;20.50;76.90
48998;DHT22;34807;51.456;7.244;2022-08-21T01:28:49;20.40;76.90
48998;DHT22;34807;51.456;7.244;2022-08-21T01:31:17;20.40;77.10
48998;DHT22;34807;51.456;7.244;2022-08-21T01:33:44;20.40;77.00
48998;DHT22;34807;51.456;7.244;2022-08-21T01:36:10;20.30;77.20
48998;DHT22;34807;51.456;7.244;2022-08-21T01:38:35;20.40;77.30
48998;DHT22;34807;51.456;7.244;2022-08-21T01:41:01;20.40;77.30
48998;DHT22;34807;51.456;7.244;2022-08-21T01:43:26;20.40;77.40
48998;DHT22;34807;51.456;7.244;2022-08-21T01:45:52;20.40;77.50
48998;DHT22;34807;51.456;7.244;2022-08-21T01:48:17;20.30;77.40
48998;DHT22;34807;51.456;7.244;2022-08-21T01:50:43;20.30;77.60
48998;DHT22;34807;51.456;7.244;2022-08-21T01:53:08;20.30;77.60
48998;DHT22;34807;51.456;7.244;2022-08-21T01:55:34;20.30;77.70
48998;DHT22;34807;51.456;7.244;2022-08-21T01:57:59;20.30;77.80
48998;DHT22;34807;51.456;7.244;2022-08-21T02:00:25;20.20;77.70
48998;DHT22;34807;51.456;7.244;2022-08-21T02:02:50;20.20;77.80
48998;DHT22;34807;51.456;7.244;2022-08-21T02:05:16;20.20;77.90
48998;DHT22;34807;51.456;7.244;2022-08-21T02:07:49;20.20;77.80
48998;DHT22;34807;51.456;7.244;2022-08-21T02:10:17;20.20;77.90
48998;DHT22;34807;51.456;7.244;2022-08-21T02:12:43;20.10;77.90
48998;DHT22;34807;51.456;7.244;2022-08-21T02:15:08;20.10;77.90
48998;DHT22;34807;51.456;7.244;2022-08-21T02:18:07;20.10;78.00
48998;DHT22;34807;51.456;7.244;2022-08-21T02:20:30;20.10;78.10
48998;DHT22;34807;51.456;7.244;2022-08-21T02:22:56;20.10;78.10
48998;DHT22;34807;51.456;7.244;2022-08-21T02:25:23;20.00;78.00
48998;DHT22;34807;51.456;7.244;2022-08-21T02:27:48;20.00;78.10
48998;DHT22;34807;51.456;7.244;2022-08-21T02:30:15;20.00;78.20
48998;DHT22;34807;51.456;7.244;2022-08-21T02:32:41;20.00;78.20
48998;DHT22;34807;51.456;7.244;2022-08-21T02:35:08;20.00;78.30
48998;DHT22;34807;51.456;7.244;2022-08-21T02:37:34;19.90;78.20
48998;DHT22;34807;51.456;7.244;2022-08-21T02:40:07;19.90;78.20
48998;DHT22;34807;51.456;7.244;2022-08-21T02:42:34;19.90;78.20
48998;DHT22;34807;51.456;7.244;2022-08-21T02:45:00;19.90;78.30
48998;DHT22;34807;51.456;7.244;2022-08-21T02:47:26;19.90;78.30
48998;DHT22;34807;51.456;7.244;2022-08-21T02:49:51;19.90;78.30
48998;DHT22;34807;51.456;7.244;2022-08-21T02:52:17;19.90;78.40
48998;DHT22;34807;51.456;7.244;2022-08-21T02:54:42;19.90;78.40
48998;DHT22;34807;51.456;7.244;2022-08-21T02:57:08;19.80;78.30
48998;DHT22;34807;51.456;7.244;2022-08-21T02:59:33;19.80;78.40
48998;DHT22;34807;51.456;7.244;2022-08-21T03:01:59;19.80;78.40
48998;DHT22;34807;51.456;7.244;2022-08-21T03:04:24;19.80;78.40
48998;DHT22;34807;51.456;7.244;2022-08-21T03:06:50;19.80;78.50
48998;DHT22;34807;51.456;7.244;2022-08-21T03:09:15;19.70;78.40
48998;DHT22;34807;51.456;7.244;2022-08-21T03:11:41;19.70;78.40
48998;DHT22;34807;51.456;7.244;2022-08-21T03:14:07;19.70;78.50
48998;DHT22;34807;51.456;7.244;2022-08-21T03:16:32;19.70;78.50
48998;DHT22;34807;51.456;7.244;2022-08-21T03:18:57;19.70;78.60
48998;DHT22;34807;51.456;7.244;2022-08-21T03:21:23;19.70;78.60
48998;DHT22;34807;51.456;7.244;2022-08-21T03:23:48;19.60;78.50
48998;DHT22;34807;51.456;7.244;2022-08-21T03:26:14;19.60;78.60
48998;DHT22;34807;51.456;7.244;2022-08-21T03:28:39;19.60;78.50
48998;DHT22;34807;51.456;7.244;2022-08-21T03:31:05;19.60;78.60
48998;DHT22;34807;51.456;7.244;2022-08-21T03:33:31;19.60;78.60
48998;DHT22;34807;51.456;7.244;2022-08-21T03:35:58;19.60;78.70
48998;DHT22;34807;51.456;7.244;2022-08-21T03:38:26;19.60;78.70
48998;DHT22;34807;51.456;7.244;2022-08-21T03:40:51;19.50;78.60
48998;DHT22;34807;51.456;7.244;2022-08-21T03:43:17;19.50;78.70
48998;DHT22;34807;51.456;7.244;2022-08-21T03:45:42;19.50;78.80
48998;DHT22;34807;51.456;7.244;2022-08-21T03:48:08;19.50;78.80
48998;DHT22;34807;51.456;7.244;2022-08-21T03:50:35;19.50;78.70
48998;DHT22;34807;51.456;7.244;2022-08-21T03:53:01;19.50;78.80
48998;DHT22;34807;51.456;7.244;2022-08-21T03:55:26;19.50;78.80
48998;DHT22;34807;51.456;7.244;2022-08-21T03:57:52;19.40;78.80
48998;DHT22;34807;51.456;7.244;2022-08-21T04:00:18;19.40;78.90
48998;DHT22;34807;51.456;7.244;2022-08-21T04:02:44;19.40;78.90
48998;DHT22;34807;51.456;7.244;2022-08-21T04:05:11;19.40;78.90
48998;DHT22;34807;51.456;7.244;2022-08-21T04:07:37;19.40;78.90
48998;DHT22;34807;51.456;7.244;2022-08-21T04:10:03;19.40;78.80
48998;DHT22;34807;51.456;7.244;2022-08-21T04:12:28;19.40;79.00
48998;DHT22;34807;51.456;7.244;2022-08-21T04:14:54;19.30;78.90
48998;DHT22;34807;51.456;7.244;2022-08-21T04:17:20;19.30;78.90
48998;DHT22;34807;51.456;7.244;2022-08-21T04:19:45;19.30;79.00
48998;DHT22;34807;51.456;7.244;2022-08-21T04:22:11;19.30;79.00
48998;DHT22;34807;51.456;7.244;2022-08-21T04:24:36;19.30;79.00
48998;DHT22;34807;51.456;7.244;2022-08-21T04:27:02;19.30;79.00
48998;DHT22;34807;51.456;7.244;2022-08-21T04:29:27;19.30;79.00
48998;DHT22;34807;51.456;7.244;2022-08-21T04:31:53;19.20;78.90
48998;DHT22;34807;51.456;7.244;2022-08-21T04:34:18;19.20;79.10
48998;DHT22;34807;51.456;7.244;2022-08-21T04:36:44;19.20;79.00
48998;DHT22;34807;51.456;7.244;2022-08-21T04:39:09;19.20;79.00
48998;DHT22;34807;51.456;7.244;2022-08-21T04:41:35;19.20;79.10
48998;DHT22;34807;51.456;7.244;2022-08-21T04:44:01;19.20;79.00
48998;DHT22;34807;51.456;7.244;2022-08-21T04:46:26;19.20;79.10
48998;DHT22;34807;51.456;7.244;2022-08-21T04:48:52;19.20;79.10
48998;DHT22;34807;51.456;7.244;2022-08-21T04:51:36;19.10;79.00
48998;DHT22;34807;51.456;7.244;2022-08-21T04:54:10;19.10;79.00
48998;DHT22;34807;51.456;7.244;2022-08-21T04:56:40;19.10;79.10
48998;DHT22;34807;51.456;7.244;2022-08-21T04:59:10;19.10;79.00
48998;DHT22;34807;51.456;7.244;2022-08-21T05:01:36;19.10;79.20
48998;DHT22;34807;51.456;7.244;2022-08-21T05:04:03;19.10;79.10
48998;DHT22;34807;51.456;7.244;2022-08-21T05:06:30;19.10;79.10
48998;DHT22;34807;51.456;7.244;2022-08-21T05:08:56;19.10;79.20
48998;DHT22;34807;51.456;7.244;2022-08-21T05:11:23;19.10;79.10
48998;DHT22;34807;51.456;7.244;2022-08-21T05:13:49;19.10;79.10
48998;DHT22;34807;51.456;7.244;2022-08-21T05:16:14;19.10;79.30
48998;DHT22;34807;51.456;7.244;2022-08-21T05:18:41;19.10;79.20
48998;DHT22;34807;51.456;7.244;2022-08-21T05:21:07;19.10;79.10
48998;DHT22;34807;51.456;7.244;2022-08-21T05:23:32;19.10;79.20
48998;DHT22;34807;51.456;7.244;2022-08-21T05:25:58;19.10;79.30
48998;DHT22;34807;51.456;7.244;2022-08-21T05:28:24;19.10;79.30
48998;DHT22;34807;51.456;7.244;2022-08-21T05:30:50;19.10;79.20
48998;DHT22;34807;51.456;7.244;2022-08-21T05:33:16;19.10;79.30
48998;DHT22;34807;51.456;7.244;2022-08-21T05:35:41;19.10;79.30
48998;DHT22;34807;51.456;7.244;2022-08-21T05:38:07;19.00;79.30
48998;DHT22;34807;51.456;7.244;2022-08-21T05:40:33;19.10;79.40
48998;DHT22;34807;51.456;7.244;2022-08-21T05:42:58;19.10;79.40
48998;DHT22;34807;51.456;7.244;2022-08-21T05:45:29;19.00;79.30
48998;DHT22;34807;51.456;7.244;2022-08-21T05:47:55;19.00;79.20
48998;DHT22;34807;51.456;7.244;2022-08-21T05:50:20;19.00;79.20
48998;DHT22;34807;51.456;7.244;2022-08-21T05:52:46;19.00;79.30
48998;DHT22;34807;51.456;7.244;2022-08-21T05:55:12;19.00;79.20
48998;DHT22;34807;51.456;7.244;2022-08-21T05:57:37;19.10;79.20
48998;DHT22;34807;51.456;7.244;2022-08-21T06:00:06;19.00;79.00
48998;DHT22;34807;51.456;7.244;2022-08-21T06:02:34;19.00;79.10
48998;DHT22;34807;51.456;7.244;2022-08-21T06:05:00;19.00;79.10
48998;DHT22;34807;51.456;7.244;2022-08-21T06:07:26;19.10;79.20
48998;DHT22;34807;51.456;7.244;2022-08-21T06:09:51;19.00;79.00
48998;DHT22;34807;51.456;7.244;2022-08-21T06:12:17;19.00;78.90
48998;DHT22;34807;51.456;7.244;2022-08-21T06:14:42;19.00;78.80
48998;DHT22;34807;51.456;7.244;2022-08-21T06:17:09;19.00;78.80
48998;DHT22;34807;51.456;7.244;2022-08-21T06:19:35;19.00;78.80
48998;DHT22;34807;51.456;7.244;2022-08-21T06:22:01;19.00;78.60
48998;DHT22;34807;51.456;7.244;2022-08-21T06:24:26;19.00;78.60
48998;DHT22;34807;51.456;7.244;2022-08-21T06:26:52;19.00;78.70
48998;DHT22;34807;51.456;7.244;2022-08-21T06:29:18;19.00;78.70
48998;DHT22;34807;51.456;7.244;2022-08-21T06:31:45;19.00;78.70
48998;DHT22;34807;51.456;7.244;2022-08-21T06:34:11;19.00;78.70
48998;DHT22;34807;51.456;7.244;2022-08-21T06:36:36;19.10;78.70
48998;DHT22;34807;51.456;7.244;2022-08-21T06:39:02;19.10;78.70
48998;DHT22;34807;51.456;7.244;2022-08-21T06:41:28;19.10;78.50
48998;DHT22;34807;51.456;7.244;2022-08-21T06:43:54;19.10;78.40
48998;DHT22;34807;51.456;7.244;2022-08-21T06:46:19;19.10;78.40
48998;DHT22;34807;51.456;7.244;2022-08-21T06:48:45;19.10;78.50
48998;DHT22;34807;51.456;7.244;2022-08-21T06:51:10;19.10;78.40
48998;DHT22;34807;51.456;7.244;2022-08-21T06:53:36;19.10;78.40
48998;DHT22;34807;51.456;7.244;2022-08-21T06:56:02;19.10;78.30
48998;DHT22;34807;51.456;7.244;2022-08-21T06:58:27;19.20;78.40
48998;DHT22;34807;51.456;7.244;2022-08-21T07:00:54;19.20;78.30
48998;DHT22;34807;51.456;7.244;2022-08-21T07:03:24;19.20;78.20
48998;DHT22;34807;51.456;7.244;2022-08-21T07:05:50;19.20;78.20
48998;DHT22;34807;51.456;7.244;2022-08-21T07:08:16;19.20;78.00
48998;DHT22;34807;51.456;7.244;2022-08-21T07:10:42;19.20;78.10
48998;DHT22;34807;51.456;7.244;2022-08-21T07:13:07;19.30;78.10
48998;DHT22;34807;51.456;7.244;2022-08-21T07:15:33;19.30;78.10
48998;DHT22;34807;51.456;7.244;2022-08-21T07:17:59;19.30;78.00
48998;DHT22;34807;51.456;7.244;2022-08-21T07:20:25;19.30;78.00
48998;DHT22;34807;51.456;7.244;2022-08-21T07:22:51;19.30;78.00
48998;DHT22;34807;51.456;7.244;2022-08-21T07:25:16;19.30;78.00
48998;DHT22;34807;51.456;7.244;2022-08-21T07:27:42;19.30;77.80
48998;DHT22;34807;51.456;7.244;2022-08-21T07:30:08;19.30;78.20
48998;DHT22;34807;51.456;7.244;2022-08-21T07:32:33;19.40;78.50
48998;DHT22;34807;51.456;7.244;2022-08-21T07:34:59;19.40;77.90
48998;DHT22;34807;51.456;7.244;2022-08-21T07:37:24;19.40;77.70
48998;DHT22;34807;51.456;7.244;2022-08-21T07:39:50;19.40;77.60
48998;DHT22;34807;51.456;7.244;2022-08-21T07:42:16;19.50;77.50
48998;DHT22;34807;51.456;7.244;2022-08-21T07:44:42;19.50;77.40
48998;DHT22;34807;51.456;7.244;2022-08-21T07:47:08;19.50;77.50
48998;DHT22;34807;51.456;7.244;2022-08-21T07:49:33;19.50;77.40
48998;DHT22;34807;51.456;7.244;2022-08-21T07:51:59;19.50;77.30
48998;DHT22;34807;51.456;7.244;2022-08-21T07:54:25;19.60;77.20
48998;DHT22;34807;51.456;7.244;2022-08-21T07:56:50;19.60;77.20
48998;DHT22;34807;51.456;7.244;2022-08-21T07:59:16;19.60;77.20
48998;DHT22;34807;51.456;7.244;2022-08-21T08:01:41;19.60;77.00
48998;DHT22;34807;51.456;7.244;2022-08-21T08:04:07;19.70;77.00
48998;DHT22;34807;51.456;7.244;2022-08-21T08:06:32;19.70;77.00
48998;DHT22;34807;51.456;7.244;2022-08-21T08:08:58;19.70;76.90
48998;DHT22;34807;51.456;7.244;2022-08-21T08:11:23;19.70;76.80
48998;DHT22;34807;51.456;7.244;2022-08-21T08:13:50;19.70;77.50
48998;DHT22;34807;51.456;7.244;2022-08-21T08:16:15;19.80;76.80
48998;DHT22;34807;51.456;7.244;2022-08-21T08:18:41;19.80;76.70
48998;DHT22;34807;51.456;7.244;2022-08-21T08:21:07;19.80;76.60
48998;DHT22;34807;51.456;7.244;2022-08-21T08:23:33;19.80;76.50
48998;DHT22;34807;51.456;7.244;2022-08-21T08:25:59;19.80;76.40
48998;DHT22;34807;51.456;7.244;2022-08-21T08:28:24;19.90;76.40
48998;DHT22;34807;51.456;7.244;2022-08-21T08:30:50;19.90;76.40
48998;DHT22;34807;51.456;7.244;2022-08-21T08:33:16;19.90;76.30
48998;DHT22;34807;51.456;7.244;2022-08-21T08:35:42;19.90;76.20
48998;DHT22;34807;51.456;7.244;2022-08-21T08:38:09;19.90;76.20
48998;DHT22;34807;51.456;7.244;2022-08-21T08:40:58;19.90;76.00
48998;DHT22;34807;51.456;7.244;2022-08-21T08:43:20;20.00;76.00
48998;DHT22;34807;51.456;7.244;2022-08-21T08:45:48;20.00;75.90
48998;DHT22;34807;51.456;7.244;2022-08-21T08:48:28;20.00;75.70
48998;DHT22;34807;51.456;7.244;2022-08-21T08:50:57;20.10;75.80
48998;DHT22;34807;51.456;7.244;2022-08-21T08:55:50;20.20;75.60
48998;DHT22;34807;51.456;7.244;2022-08-21T08:58:22;20.10;75.50
48998;DHT22;34807;51.456;7.244;2022-08-21T09:00:49;20.20;75.30
48998;DHT22;34807;51.456;7.244;2022-08-21T09:03:15;20.20;75.20
48998;DHT22;34807;51.456;7.244;2022-08-21T09:05:46;20.20;75.20
48998;DHT22;34807;51.456;7.244;2022-08-21T09:10:43;20.30;75.00
48998;DHT22;34807;51.456;7.244;2022-08-21T09:28:16;20.50;74.20
48998;DHT22;34807;51.456;7.244;2022-08-21T09:30:41;20.60;74.10
48998;DHT22;34807;51.456;7.244;2022-08-21T09:33:07;20.70;74.00
48998;DHT22;34807;51.456;7.244;2022-08-21T09:35:34;20.70;73.90
48998;DHT22;34807;51.456;7.244;2022-08-21T09:38:05;20.70;73.90
48998;DHT22;34807;51.456;7.244;2022-08-21T09:40:43;20.80;73.80
48998;DHT22;34807;51.456;7.244;2022-08-21T09:45:42;20.90;73.60
48998;DHT22;34807;51.456;7.244;2022-08-21T09:48:17;20.90;73.50
48998;DHT22;34807;51.456;7.244;2022-08-21T09:50:43;20.90;73.40
48998;DHT22;34807;51.456;7.244;2022-08-21T09:53:25;21.00;73.40
48998;DHT22;34807;51.456;7.244;2022-08-21T09:55:53;20.90;73.20
48998;DHT22;34807;51.456;7.244;2022-08-21T09:58:39;21.00;73.20
48998;DHT22;34807;51.456;7.244;2022-08-21T10:01:06;21.00;73.20
48998;DHT22;34807;51.456;7.244;2022-08-21T10:03:32;21.10;73.00
48998;DHT22;34807;51.456;7.244;2022-08-21T10:06:02;21.10;72.80
48998;DHT22;34807;51.456;7.244;2022-08-21T10:08:31;21.10;72.80
48998;DHT22;34807;51.456;7.244;2022-08-21T10:11:01;21.20;72.80
48998;DHT22;34807;51.456;7.244;2022-08-21T10:18:40;21.30;72.20
48998;DHT22;34807;51.456;7.244;2022-08-21T10:28:40;21.40;72.30
48998;DHT22;34807;51.456;7.244;2022-08-21T10:31:14;21.40;71.90
48998;DHT22;34807;51.456;7.244;2022-08-21T10:34:03;21.60;72.20
48998;DHT22;34807;51.456;7.244;2022-08-21T10:36:33;21.60;71.90
48998;DHT22;34807;51.456;7.244;2022-08-21T10:49:31;22.00;71.60
48998;DHT22;34807;51.456;7.244;2022-08-21T10:54:46;22.00;71.70
48998;DHT22;34807;51.456;7.244;2022-08-21T10:57:19;22.10;70.90
48998;DHT22;34807;51.456;7.244;2022-08-21T10:59:51;22.20;71.10
48998;DHT22;34807;51.456;7.244;2022-08-21T11:02:22;22.30;70.90
48998;DHT22;34807;51.456;7.244;2022-08-21T11:09:45;22.60;70.40
48998;DHT22;34807;51.456;7.244;2022-08-21T11:12:34;22.70;70.60
48998;DHT22;34807;51.456;7.244;2022-08-21T11:15:03;22.80;70.40
48998;DHT22;34807;51.456;7.244;2022-08-21T11:17:31;22.90;69.80
48998;DHT22;34807;51.456;7.244;2022-08-21T11:20:10;23.00;69.50
48998;DHT22;34807;51.456;7.244;2022-08-21T11:22:40;23.10;69.90
48998;DHT22;34807;51.456;7.244;2022-08-21T11:25:11;23.30;70.10
48998;DHT22;34807;51.456;7.244;2022-08-21T11:27:40;23.30;69.30
48998;DHT22;34807;51.456;7.244;2022-08-21T11:30:07;23.40;69.80
48998;DHT22;34807;51.456;7.244;2022-08-21T11:43:10;23.80;69.00
48998;DHT22;34807;51.456;7.244;2022-08-21T11:50:47;24.10;67.40
48998;DHT22;34807;51.456;7.244;2022-08-21T11:53:22;24.10;67.00
48998;DHT22;34807;51.456;7.244;2022-08-21T11:55:55;24.10;66.90
48998;DHT22;34807;51.456;7.244;2022-08-21T11:58:42;24.20;67.30
48998;DHT22;34807;51.456;7.244;2022-08-21T12:01:14;24.20;67.80
48998;DHT22;34807;51.456;7.244;2022-08-21T12:03:51;24.30;67.70
48998;DHT22;34807;51.456;7.244;2022-08-21T12:06:27;24.40;67.30
48998;DHT22;34807;51.456;7.244;2022-08-21T12:09:04;24.40;67.80
48998;DHT22;34807;51.456;7.244;2022-08-21T12:11:30;24.40;67.80
48998;DHT22;34807;51.456;7.244;2022-08-21T12:19:41;24.50;67.90
48998;DHT22;34807;51.456;7.244;2022-08-21T12:29:29;24.80;66.20
48998;DHT22;34807;51.456;7.244;2022-08-21T12:31:59;24.90;67.20
48998;DHT22;34807;51.456;7.244;2022-08-21T12:36:59;25.00;67.60
48998;DHT22;34807;51.456;7.244;2022-08-21T12:39:26;25.00;67.40
48998;DHT22;34807;51.456;7.244;2022-08-21T12:44:28;25.10;66.60
48998;DHT22;34807;51.456;7.244;2022-08-21T12:46:58;25.10;67.30
48998;DHT22;34807;51.456;7.244;2022-08-21T12:54:27;25.30;66.80
48998;DHT22;34807;51.456;7.244;2022-08-21T12:56:57;25.30;65.50
48998;DHT22;34807;51.456;7.244;2022-08-21T12:59:23;25.30;67.00
48998;DHT22;34807;51.456;7.244;2022-08-21T13:01:49;25.40;67.00
48998;DHT22;34807;51.456;7.244;2022-08-21T13:04:16;25.40;66.60
48998;DHT22;34807;51.456;7.244;2022-08-21T13:06:43;25.40;67.00
48998;DHT22;34807;51.456;7.244;2022-08-21T13:09:11;25.40;66.60
48998;DHT22;34807;51.456;7.244;2022-08-21T13:11:39;25.40;65.00
48998;DHT22;34807;51.456;7.244;2022-08-21T13:14:05;25.40;66.00
48998;DHT22;34807;51.456;7.244;2022-08-21T13:16:31;25.40;66.40
48998;DHT22;34807;51.456;7.244;2022-08-21T13:19:04;25.40;67.30
48998;DHT22;34807;51.456;7.244;2022-08-21T13:21:39;25.30;66.30
48998;DHT22;34807;51.456;7.244;2022-08-21T13:24:18;25.40;66.60
48998;DHT22;34807;51.456;7.244;2022-08-21T13:26:44;25.40;66.50
48998;DHT22;34807;51.456;7.244;2022-08-21T13:29:11;25.50;67.20
48998;DHT22;34807;51.456;7.244;2022-08-21T13:31:37;25.50;66.90
48998;DHT22;34807;51.456;7.244;2022-08-21T13:34:03;25.60;66.10
48998;DHT22;34807;51.456;7.244;2022-08-21T13:36:31;25.60;66.50
48998;DHT22;34807;51.456;7.244;2022-08-21T13:38:57;25.60;66.00
48998;DHT22;34807;51.456;7.244;2022-08-21T13:41:29;25.70;66.20
48998;DHT22;34807;51.456;7.244;2022-08-21T13:44:01;25.80;66.00
48998;DHT22;34807;51.456;7.244;2022-08-21T13:46:27;25.90;65.20
48998;DHT22;34807;51.456;7.244;2022-08-21T13:48:54;25.80;65.40
48998;DHT22;34807;51.456;7.244;2022-08-21T13:51:20;25.80;65.60
48998;DHT22;34807;51.456;7.244;2022-08-21T13:53:47;25.80;65.50
48998;DHT22;34807;51.456;7.244;2022-08-21T13:56:40;25.80;65.80
48998;DHT22;34807;51.456;7.244;2022-08-21T13:59:06;25.80;65.80
48998;DHT22;34807;51.456;7.244;2022-08-21T14:01:36;25.90;65.00
48998;DHT22;34807;51.456;7.244;2022-08-21T14:06:36;26.00;65.00
48998;DHT22;34807;51.456;7.244;2022-08-21T14:09:14;26.00;65.40
48998;DHT22;34807;51.456;7.244;2022-08-21T14:11:40;26.00;64.40
48998;DHT22;34807;51.456;7.244;2022-08-21T14:14:13;26.10;64.50
48998;DHT22;34807;51.456;7.244;2022-08-21T14:16:44;26.20;63.90
48998;DHT22;34807;51.456;7.244;2022-08-21T14:19:15;26.30;63.80
48998;DHT22;34807;51.456;7.244;2022-08-21T14:21:42;26.50;63.70
48998;DHT22;34807;51.456;7.244;2022-08-21T14:26:35;26.60;63.30
48998;DHT22;34807;51.456;7.244;2022-08-21T14:29:01;26.60;63.40
48998;DHT22;34807;51.456;7.244;2022-08-21T14:31:30;26.60;62.90
48998;DHT22;34807;51.456;7.244;2022-08-21T14:33:58;26.60;63.50
48998;DHT22;34807;51.456;7.244;2022-08-21T14:36:24;26.60;63.50
48998;DHT22;34807;51.456;7.244;2022-08-21T14:38:49;26.50;63.60
48998;DHT22;34807;51.456;7.244;2022-08-21T14:41:16;26.50;63.80
48998;DHT22;34807;51.456;7.244;2022-08-21T14:43:43;26.40;64.00
48998;DHT22;34807;51.456;7.244;2022-08-21T14:46:09;26.30;64.20
48998;DHT22;34807;51.456;7.244;2022-08-21T14:48:34;26.40;64.60
48998;DHT22;34807;51.456;7.244;2022-08-21T14:51:00;26.30;64.50
48998;DHT22;34807;51.456;7.244;2022-08-21T14:53:25;26.30;64.60
48998;DHT22;34807;51.456;7.244;2022-08-21T14:55:51;26.30;64.50
48998;DHT22;34807;51.456;7.244;2022-08-21T14:58:38;26.30;64.70
48998;DHT22;34807;51.456;7.244;2022-08-21T15:01:05;26.20;64.30
48998;DHT22;34807;51.456;7.244;2022-08-21T15:03:31;26.20;63.90
48998;DHT22;34807;51.456;7.244;2022-08-21T15:05:57;26.20;64.60
48998;DHT22;34807;51.456;7.244;2022-08-21T15:08:23;26.10;64.60
48998;DHT22;34807;51.456;7.244;2022-08-21T15:10:49;26.20;64.30
48998;DHT22;34807;51.456;7.244;2022-08-21T15:13:16;26.20;64.40
48998;DHT22;34807;51.456;7.244;2022-08-21T15:15:43;26.20;63.80
48998;DHT22;34807;51.456;7.244;2022-08-21T15:18:09;26.30;64.40
48998;DHT22;34807;51.456;7.244;2022-08-21T15:20:34;26.40;64.40
48998;DHT22;34807;51.456;7.244;2022-08-21T15:23:00;26.40;63.40
48998;DHT22;34807;51.456;7.244;2022-08-21T15:25:26;26.50;63.70
48998;DHT22;34807;51.456;7.244;2022-08-21T15:27:51;26.50;63.50
48998;DHT22;34807;51.456;7.244;2022-08-21T15:30:17;26.60;62.00
48998;DHT22;34807;51.456;7.244;2022-08-21T15:32:43;26.70;63.10
48998;DHT22;34807;51.456;7.244;2022-08-21T15:35:08;26.70;62.40
48998;DHT22;34807;51.456;7.244;2022-08-21T15:37:34;26.80;62.30
48998;DHT22;34807;51.456;7.244;2022-08-21T15:40:00;26.90;62.30
48998;DHT22;34807;51.456;7.244;2022-08-21T15:42:25;26.90;62.70
48998;DHT22;34807;51.456;7.244;2022-08-21T15:44:52;27.00;62.40
48998;DHT22;34807;51.456;7.244;2022-08-21T15:47:19;27.10;62.30
48998;DHT22;34807;51.456;7.244;2022-08-21T15:49:45;27.20;62.30
48998;DHT22;34807;51.456;7.244;2022-08-21T15:52:14;27.30;62.40
48998;DHT22;34807;51.456;7.244;2022-08-21T15:54:40;27.40;61.80
48998;DHT22;34807;51.456;7.244;2022-08-21T15:57:06;27.30;61.90
48998;DHT22;34807;51.456;7.244;2022-08-21T15:59:32;27.20;61.70
48998;DHT22;34807;51.456;7.244;2022-08-21T16:02:04;27.30;62.10
48998;DHT22;34807;51.456;7.244;2022-08-21T16:04:30;27.40;62.20
48998;DHT22;34807;51.456;7.244;2022-08-21T16:06:55;27.40;61.90
48998;DHT22;34807;51.456;7.244;2022-08-21T16:09:21;27.50;61.80
48998;DHT22;34807;51.456;7.244;2022-08-21T16:11:47;27.60;61.40
48998;DHT22;34807;51.456;7.244;2022-08-21T16:14:13;27.70;61.40
48998;DHT22;34807;51.456;7.244;2022-08-21T16:16:39;27.70;60.90
48998;DHT22;34807;51.456;7.244;2022-08-21T16:19:05;27.80;60.90
48998;DHT22;34807;51.456;7.244;2022-08-21T16:21:34;27.80;61.30
48998;DHT22;34807;51.456;7.244;2022-08-21T16:23:59;28.20;60.90
48998;DHT22;34807;51.456;7.244;2022-08-21T16:26:25;28.70;60.30
48998;DHT22;34807;51.456;7.244;2022-08-21T16:28:52;29.20;59.20
48998;DHT22;34807;51.456;7.244;2022-08-21T16:31:18;29.60;58.40
48998;DHT22;34807;51.456;7.244;2022-08-21T16:33:45;29.90;57.90
48998;DHT22;34807;51.456;7.244;2022-08-21T16:36:13;30.10;57.70
48998;DHT22;34807;51.456;7.244;2022-08-21T16:38:40;30.10;57.60
48998;DHT22;34807;51.456;7.244;2022-08-21T16:41:11;30.00;57.40
48998;DHT22;34807;51.456;7.244;2022-08-21T16:43:38;29.70;57.90
48998;DHT22;34807;51.456;7.244;2022-08-21T16:46:04;29.50;58.50
48998;DHT22;34807;51.456;7.244;2022-08-21T16:48:30;29.30;59.00
48998;DHT22;34807;51.456;7.244;2022-08-21T16:50:56;29.10;59.30
48998;DHT22;34807;51.456;7.244;2022-08-21T16:53:22;28.90;59.70
48998;DHT22;34807;51.456;7.244;2022-08-21T16:55:48;28.80;60.00
48998;DHT22;34807;51.456;7.244;2022-08-21T16:58:33;28.70;60.30
48998;DHT22;34807;51.456;7.244;2022-08-21T17:00:59;28.50;60.50
48998;DHT22;34807;51.456;7.244;2022-08-21T17:03:29;28.40;61.10
48998;DHT22;34807;51.456;7.244;2022-08-21T17:05:56;28.20;61.30
48998;DHT22;34807;51.456;7.244;2022-08-21T17:08:22;28.10;61.60